Aérodrome :
LOGIN :

S'inscrire | Disclaimer

   EN    FR    IT 

 










Légende :    VFR   VFR Marginal   IFR   IFR Intensif   IFR Très Intensif
Visi : 
Plafond : 
>= 8 km
>= 3000ft
5 à 8 km
1000 à 3000 ft
1500m à 5 km
500 à 1000 ft
800 à 1500m
200 à 500 ft
< 800m
< 200 ft
Symboles :   Orages  Brouillard  Fortes neiges  Fortes précipitations  Vent > 20 kt
SIGMETs :   Divers  Orages  Givrage  Turbulence  Onde Orograph.  Cendres Volcan.







- Altitude de l'aérodrome : 170 ft
- Code IATA : KRP


EKKA - Karup

DERNIER METAR :
  • 191250Z AUTO 09012KT 060V120 9999 NCD 21/14 Q1010

METARs EXPIRÉS :
  • 191220Z AUTO 08011KT 9999 NCD 20/13 Q1010
  • 191150Z AUTO 09011KT 050V130 9999 NCD 20/13 Q1010
  • 191120Z AUTO 10014KT 9999 NCD 19/13 Q1010
  • 191050Z AUTO 06010KT 9999 NCD 20/13 Q1010
  • 191020Z AUTO 07009KT 050V110 9999 NCD 19/14 Q1010

TAF TAF EKKA
Valide du 19 à 12h jusqu'au 20 à 12h UTC


191123Z 1912/2012 06008KT 9999 FEW020
TEMPO 1921/2006 3000 BR MIFG
Pas de NOTAMs connus pour ce terrain.



MET'MAP, la Météo Aéronautique d'un coup d'oeil ! - Copyright ORBIFLY Décembre 2007 - Disclaimer

ORBIFLY MET'MAP TEAM :

Programmation & Développement : Alexandra Zaïnal
Conception & Développement : Baudouin d'Aumeries
Co-Programmation & Développement : Marc-Olivier Méhu
Soutien technique & logistique : Manuel Goepfert

Contact : metmap@orbifly.com




SOURCES & CREDITS :

   NOAA